sensor_id;sensor_type;location;lat;lon;timestamp;temperature;humidity
15947;DHT22;8072;52.554;7.966;2023-09-18T00:02:21;18.30;99.90
15947;DHT22;8072;52.554;7.966;2023-09-18T00:04:47;18.30;99.90
15947;DHT22;8072;52.554;7.966;2023-09-18T00:07:13;18.30;99.90
15947;DHT22;8072;52.554;7.966;2023-09-18T00:09:39;18.30;99.90
15947;DHT22;8072;52.554;7.966;2023-09-18T00:12:06;18.30;99.90
15947;DHT22;8072;52.554;7.966;2023-09-18T00:14:32;18.20;99.90
15947;DHT22;8072;52.554;7.966;2023-09-18T00:16:58;18.20;99.90
15947;DHT22;8072;52.554;7.966;2023-09-18T00:19:24;18.10;99.90
15947;DHT22;8072;52.554;7.966;2023-09-18T00:21:50;18.10;99.90
15947;DHT22;8072;52.554;7.966;2023-09-18T00:24:18;18.00;99.90
15947;DHT22;8072;52.554;7.966;2023-09-18T00:26:43;18.00;99.90
15947;DHT22;8072;52.554;7.966;2023-09-18T00:29:11;18.00;99.90
15947;DHT22;8072;52.554;7.966;2023-09-18T00:31:37;18.00;99.90
15947;DHT22;8072;52.554;7.966;2023-09-18T00:34:03;18.00;99.90
15947;DHT22;8072;52.554;7.966;2023-09-18T00:36:29;18.00;99.90
15947;DHT22;8072;52.554;7.966;2023-09-18T00:38:55;18.00;99.90
15947;DHT22;8072;52.554;7.966;2023-09-18T00:41:20;18.00;99.90
15947;DHT22;8072;52.554;7.966;2023-09-18T00:43:46;18.00;99.90
15947;DHT22;8072;52.554;7.966;2023-09-18T00:46:12;18.00;99.90
15947;DHT22;8072;52.554;7.966;2023-09-18T00:48:38;18.00;99.90
15947;DHT22;8072;52.554;7.966;2023-09-18T00:51:04;18.00;99.90
15947;DHT22;8072;52.554;7.966;2023-09-18T00:53:31;18.00;99.90
15947;DHT22;8072;52.554;7.966;2023-09-18T00:55:58;18.00;99.90
15947;DHT22;8072;52.554;7.966;2023-09-18T00:58:25;18.00;99.90
15947;DHT22;8072;52.554;7.966;2023-09-18T01:00:51;17.90;99.90
15947;DHT22;8072;52.554;7.966;2023-09-18T01:03:17;18.00;99.90
15947;DHT22;8072;52.554;7.966;2023-09-18T01:05:44;17.90;99.90
15947;DHT22;8072;52.554;7.966;2023-09-18T01:08:10;17.90;99.90
15947;DHT22;8072;52.554;7.966;2023-09-18T01:10:59;17.90;99.90
15947;DHT22;8072;52.554;7.966;2023-09-18T01:13:34;17.80;99.90
15947;DHT22;8072;52.554;7.966;2023-09-18T01:16:14;17.80;99.90
15947;DHT22;8072;52.554;7.966;2023-09-18T01:18:49;17.80;99.90
15947;DHT22;8072;52.554;7.966;2023-09-18T01:21:15;17.90;99.90
15947;DHT22;8072;52.554;7.966;2023-09-18T01:23:41;17.90;99.90
15947;DHT22;8072;52.554;7.966;2023-09-18T01:26:06;17.80;99.90
15947;DHT22;8072;52.554;7.966;2023-09-18T01:28:33;17.90;99.90
15947;DHT22;8072;52.554;7.966;2023-09-18T01:30:59;17.90;99.90
15947;DHT22;8072;52.554;7.966;2023-09-18T01:33:26;17.90;99.90
15947;DHT22;8072;52.554;7.966;2023-09-18T01:35:53;17.90;99.90
15947;DHT22;8072;52.554;7.966;2023-09-18T01:38:22;17.90;99.90
15947;DHT22;8072;52.554;7.966;2023-09-18T01:40:48;17.90;99.90
15947;DHT22;8072;52.554;7.966;2023-09-18T01:43:14;17.90;99.90
15947;DHT22;8072;52.554;7.966;2023-09-18T01:45:40;17.80;99.90
15947;DHT22;8072;52.554;7.966;2023-09-18T01:48:07;17.80;99.90
15947;DHT22;8072;52.554;7.966;2023-09-18T01:50:33;17.80;99.90
15947;DHT22;8072;52.554;7.966;2023-09-18T01:52:59;17.80;99.90
15947;DHT22;8072;52.554;7.966;2023-09-18T01:55:25;17.80;99.90
15947;DHT22;8072;52.554;7.966;2023-09-18T01:57:50;17.80;99.90
15947;DHT22;8072;52.554;7.966;2023-09-18T02:00:16;17.90;99.90
15947;DHT22;8072;52.554;7.966;2023-09-18T02:02:42;17.90;99.90
15947;DHT22;8072;52.554;7.966;2023-09-18T02:05:08;17.90;99.90
15947;DHT22;8072;52.554;7.966;2023-09-18T02:07:33;17.90;99.90
15947;DHT22;8072;52.554;7.966;2023-09-18T02:09:59;17.90;99.90
15947;DHT22;8072;52.554;7.966;2023-09-18T02:12:25;17.90;99.90
15947;DHT22;8072;52.554;7.966;2023-09-18T02:14:51;18.00;99.90
15947;DHT22;8072;52.554;7.966;2023-09-18T02:17:17;18.00;99.90
15947;DHT22;8072;52.554;7.966;2023-09-18T02:19:43;18.00;99.90
15947;DHT22;8072;52.554;7.966;2023-09-18T02:22:09;18.00;99.90
15947;DHT22;8072;52.554;7.966;2023-09-18T02:24:34;18.00;99.90
15947;DHT22;8072;52.554;7.966;2023-09-18T02:27:00;18.00;99.90
15947;DHT22;8072;52.554;7.966;2023-09-18T02:29:29;18.00;99.90
15947;DHT22;8072;52.554;7.966;2023-09-18T02:31:55;18.10;99.90
15947;DHT22;8072;52.554;7.966;2023-09-18T02:34:21;18.00;99.90
15947;DHT22;8072;52.554;7.966;2023-09-18T02:36:46;18.10;99.90
15947;DHT22;8072;52.554;7.966;2023-09-18T02:39:13;18.10;99.90
15947;DHT22;8072;52.554;7.966;2023-09-18T02:41:42;18.10;99.90
15947;DHT22;8072;52.554;7.966;2023-09-18T02:44:07;18.10;99.90
15947;DHT22;8072;52.554;7.966;2023-09-18T02:46:33;18.20;99.90
15947;DHT22;8072;52.554;7.966;2023-09-18T02:49:00;18.20;99.90
15947;DHT22;8072;52.554;7.966;2023-09-18T02:51:26;18.20;99.90
15947;DHT22;8072;52.554;7.966;2023-09-18T02:53:52;18.20;99.90
15947;DHT22;8072;52.554;7.966;2023-09-18T02:56:18;18.20;99.90
15947;DHT22;8072;52.554;7.966;2023-09-18T02:58:44;18.20;99.90
15947;DHT22;8072;52.554;7.966;2023-09-18T03:01:09;18.20;99.90
15947;DHT22;8072;52.554;7.966;2023-09-18T03:03:35;18.20;99.90
15947;DHT22;8072;52.554;7.966;2023-09-18T03:06:02;18.20;99.90
15947;DHT22;8072;52.554;7.966;2023-09-18T03:08:28;18.20;99.90
15947;DHT22;8072;52.554;7.966;2023-09-18T03:10:54;18.20;99.90
15947;DHT22;8072;52.554;7.966;2023-09-18T03:13:21;18.20;99.90
15947;DHT22;8072;52.554;7.966;2023-09-18T03:15:47;18.20;99.90
15947;DHT22;8072;52.554;7.966;2023-09-18T03:18:13;18.20;99.90
15947;DHT22;8072;52.554;7.966;2023-09-18T03:20:39;18.20;99.90
15947;DHT22;8072;52.554;7.966;2023-09-18T03:23:05;18.20;99.90
15947;DHT22;8072;52.554;7.966;2023-09-18T03:25:31;18.20;99.90
15947;DHT22;8072;52.554;7.966;2023-09-18T03:27:57;18.20;99.90
15947;DHT22;8072;52.554;7.966;2023-09-18T03:30:24;18.20;99.90
15947;DHT22;8072;52.554;7.966;2023-09-18T03:32:50;18.10;99.90
15947;DHT22;8072;52.554;7.966;2023-09-18T03:35:16;18.20;99.90
15947;DHT22;8072;52.554;7.966;2023-09-18T03:37:46;18.20;99.90
15947;DHT22;8072;52.554;7.966;2023-09-18T03:40:13;18.20;99.90
15947;DHT22;8072;52.554;7.966;2023-09-18T03:42:39;18.20;99.90
15947;DHT22;8072;52.554;7.966;2023-09-18T03:45:06;18.20;99.90
15947;DHT22;8072;52.554;7.966;2023-09-18T03:47:40;18.30;99.90
15947;DHT22;8072;52.554;7.966;2023-09-18T03:50:09;18.20;99.90
15947;DHT22;8072;52.554;7.966;2023-09-18T03:52:37;18.20;99.90
15947;DHT22;8072;52.554;7.966;2023-09-18T03:55:04;18.20;99.90
15947;DHT22;8072;52.554;7.966;2023-09-18T03:57:30;18.20;99.90
15947;DHT22;8072;52.554;7.966;2023-09-18T03:59:56;18.20;99.90
15947;DHT22;8072;52.554;7.966;2023-09-18T04:02:24;18.30;99.90
15947;DHT22;8072;52.554;7.966;2023-09-18T04:04:50;18.20;99.90
15947;DHT22;8072;52.554;7.966;2023-09-18T04:07:15;18.30;99.90
15947;DHT22;8072;52.554;7.966;2023-09-18T04:09:46;18.30;99.90
15947;DHT22;8072;52.554;7.966;2023-09-18T04:12:12;18.30;99.90
15947;DHT22;8072;52.554;7.966;2023-09-18T04:14:38;18.40;99.90
15947;DHT22;8072;52.554;7.966;2023-09-18T04:17:04;18.40;99.90
15947;DHT22;8072;52.554;7.966;2023-09-18T04:19:30;18.40;99.90
15947;DHT22;8072;52.554;7.966;2023-09-18T04:21:56;18.40;99.90
15947;DHT22;8072;52.554;7.966;2023-09-18T04:24:23;18.40;99.90
15947;DHT22;8072;52.554;7.966;2023-09-18T04:26:49;18.40;99.90
15947;DHT22;8072;52.554;7.966;2023-09-18T04:29:18;18.40;99.90
15947;DHT22;8072;52.554;7.966;2023-09-18T04:31:44;18.40;99.90
15947;DHT22;8072;52.554;7.966;2023-09-18T04:34:10;18.50;99.90
15947;DHT22;8072;52.554;7.966;2023-09-18T04:36:36;18.50;99.90
15947;DHT22;8072;52.554;7.966;2023-09-18T04:39:06;18.50;99.90
15947;DHT22;8072;52.554;7.966;2023-09-18T04:41:32;18.50;99.90
15947;DHT22;8072;52.554;7.966;2023-09-18T04:43:59;18.50;99.90
15947;DHT22;8072;52.554;7.966;2023-09-18T04:46:25;18.60;99.90
15947;DHT22;8072;52.554;7.966;2023-09-18T04:48:51;18.60;99.90
15947;DHT22;8072;52.554;7.966;2023-09-18T04:51:17;18.60;99.90
15947;DHT22;8072;52.554;7.966;2023-09-18T04:53:43;18.60;99.90
15947;DHT22;8072;52.554;7.966;2023-09-18T04:56:09;18.70;99.90
15947;DHT22;8072;52.554;7.966;2023-09-18T04:58:38;18.70;99.90
15947;DHT22;8072;52.554;7.966;2023-09-18T05:01:04;18.80;99.90
15947;DHT22;8072;52.554;7.966;2023-09-18T05:03:36;18.80;99.90
15947;DHT22;8072;52.554;7.966;2023-09-18T05:06:02;18.90;99.90
15947;DHT22;8072;52.554;7.966;2023-09-18T05:08:31;18.90;99.90
15947;DHT22;8072;52.554;7.966;2023-09-18T05:10:57;18.90;99.90
15947;DHT22;8072;52.554;7.966;2023-09-18T05:13:23;19.00;99.90
15947;DHT22;8072;52.554;7.966;2023-09-18T05:15:49;19.00;99.90
15947;DHT22;8072;52.554;7.966;2023-09-18T05:18:14;19.00;99.90
15947;DHT22;8072;52.554;7.966;2023-09-18T05:20:40;19.00;99.90
15947;DHT22;8072;52.554;7.966;2023-09-18T05:23:06;19.00;99.90
15947;DHT22;8072;52.554;7.966;2023-09-18T05:25:33;19.10;99.90
15947;DHT22;8072;52.554;7.966;2023-09-18T05:28:00;19.10;99.90
15947;DHT22;8072;52.554;7.966;2023-09-18T05:30:31;19.10;99.90
15947;DHT22;8072;52.554;7.966;2023-09-18T05:33:01;19.10;99.90
15947;DHT22;8072;52.554;7.966;2023-09-18T05:35:43;19.10;99.90
15947;DHT22;8072;52.554;7.966;2023-09-18T05:38:11;19.10;99.90
15947;DHT22;8072;52.554;7.966;2023-09-18T05:40:39;19.20;99.90
15947;DHT22;8072;52.554;7.966;2023-09-18T05:43:05;19.10;99.90
15947;DHT22;8072;52.554;7.966;2023-09-18T05:45:31;19.10;99.90
15947;DHT22;8072;52.554;7.966;2023-09-18T05:47:58;19.10;99.90
15947;DHT22;8072;52.554;7.966;2023-09-18T05:50:33;19.10;99.90
15947;DHT22;8072;52.554;7.966;2023-09-18T05:53:00;19.00;99.90
15947;DHT22;8072;52.554;7.966;2023-09-18T05:55:30;19.00;99.90
15947;DHT22;8072;52.554;7.966;2023-09-18T05:57:55;19.10;99.90
15947;DHT22;8072;52.554;7.966;2023-09-18T06:00:23;19.00;99.90
15947;DHT22;8072;52.554;7.966;2023-09-18T06:02:49;19.00;99.90
15947;DHT22;8072;52.554;7.966;2023-09-18T06:05:17;19.00;99.90
15947;DHT22;8072;52.554;7.966;2023-09-18T06:07:43;19.00;99.90
15947;DHT22;8072;52.554;7.966;2023-09-18T06:10:10;18.90;99.90
15947;DHT22;8072;52.554;7.966;2023-09-18T06:12:38;18.90;99.90
15947;DHT22;8072;52.554;7.966;2023-09-18T06:15:07;18.90;99.90
15947;DHT22;8072;52.554;7.966;2023-09-18T06:17:38;18.90;99.90
15947;DHT22;8072;52.554;7.966;2023-09-18T06:20:06;18.90;99.90
15947;DHT22;8072;52.554;7.966;2023-09-18T06:22:39;18.90;99.90
15947;DHT22;8072;52.554;7.966;2023-09-18T06:25:06;18.90;99.90
15947;DHT22;8072;52.554;7.966;2023-09-18T06:27:34;18.90;99.90
15947;DHT22;8072;52.554;7.966;2023-09-18T06:30:02;18.90;99.90
15947;DHT22;8072;52.554;7.966;2023-09-18T06:32:28;18.90;99.90
15947;DHT22;8072;52.554;7.966;2023-09-18T06:34:54;18.90;99.90
15947;DHT22;8072;52.554;7.966;2023-09-18T06:37:19;18.90;99.90
15947;DHT22;8072;52.554;7.966;2023-09-18T06:39:45;19.00;99.90
15947;DHT22;8072;52.554;7.966;2023-09-18T06:42:11;19.00;99.90
15947;DHT22;8072;52.554;7.966;2023-09-18T06:44:37;19.00;99.90
15947;DHT22;8072;52.554;7.966;2023-09-18T06:47:03;19.00;99.90
15947;DHT22;8072;52.554;7.966;2023-09-18T06:49:29;19.00;99.90
15947;DHT22;8072;52.554;7.966;2023-09-18T06:51:56;19.10;99.90
15947;DHT22;8072;52.554;7.966;2023-09-18T06:54:22;19.10;99.90
15947;DHT22;8072;52.554;7.966;2023-09-18T06:56:47;19.20;99.90
15947;DHT22;8072;52.554;7.966;2023-09-18T06:59:13;19.20;99.90
15947;DHT22;8072;52.554;7.966;2023-09-18T07:01:40;19.20;99.90
15947;DHT22;8072;52.554;7.966;2023-09-18T07:04:07;19.30;99.90
15947;DHT22;8072;52.554;7.966;2023-09-18T07:06:33;19.30;99.90
15947;DHT22;8072;52.554;7.966;2023-09-18T07:08:58;19.40;99.90
15947;DHT22;8072;52.554;7.966;2023-09-18T07:11:25;19.50;99.90
15947;DHT22;8072;52.554;7.966;2023-09-18T07:13:51;19.50;99.90
15947;DHT22;8072;52.554;7.966;2023-09-18T07:16:16;19.50;99.90
15947;DHT22;8072;52.554;7.966;2023-09-18T07:18:42;19.60;99.90
15947;DHT22;8072;52.554;7.966;2023-09-18T07:21:08;19.60;99.90
15947;DHT22;8072;52.554;7.966;2023-09-18T07:23:34;19.70;99.90
15947;DHT22;8072;52.554;7.966;2023-09-18T07:26:03;19.80;99.90
15947;DHT22;8072;52.554;7.966;2023-09-18T07:28:29;19.90;99.90
15947;DHT22;8072;52.554;7.966;2023-09-18T07:30:54;19.90;99.90
15947;DHT22;8072;52.554;7.966;2023-09-18T07:33:20;20.10;99.90
15947;DHT22;8072;52.554;7.966;2023-09-18T07:35:47;20.20;99.90
15947;DHT22;8072;52.554;7.966;2023-09-18T07:38:13;20.30;99.90
15947;DHT22;8072;52.554;7.966;2023-09-18T07:40:39;20.40;99.90
15947;DHT22;8072;52.554;7.966;2023-09-18T07:43:05;20.50;99.90
15947;DHT22;8072;52.554;7.966;2023-09-18T07:45:31;20.60;99.90
15947;DHT22;8072;52.554;7.966;2023-09-18T07:47:56;20.60;99.90
15947;DHT22;8072;52.554;7.966;2023-09-18T07:50:22;20.70;99.90
15947;DHT22;8072;52.554;7.966;2023-09-18T07:52:48;20.70;99.90
15947;DHT22;8072;52.554;7.966;2023-09-18T07:55:14;20.80;99.90
15947;DHT22;8072;52.554;7.966;2023-09-18T07:57:40;20.80;99.90
15947;DHT22;8072;52.554;7.966;2023-09-18T08:00:06;20.80;99.90
15947;DHT22;8072;52.554;7.966;2023-09-18T08:02:39;20.80;99.90
15947;DHT22;8072;52.554;7.966;2023-09-18T08:05:05;20.90;99.90
15947;DHT22;8072;52.554;7.966;2023-09-18T08:07:31;20.90;99.90
15947;DHT22;8072;52.554;7.966;2023-09-18T08:09:57;20.90;99.90
15947;DHT22;8072;52.554;7.966;2023-09-18T08:12:23;20.90;99.90
15947;DHT22;8072;52.554;7.966;2023-09-18T08:14:49;21.00;99.90
15947;DHT22;8072;52.554;7.966;2023-09-18T08:17:16;20.90;99.90
15947;DHT22;8072;52.554;7.966;2023-09-18T08:19:42;21.00;99.90
15947;DHT22;8072;52.554;7.966;2023-09-18T08:22:09;21.00;99.90
15947;DHT22;8072;52.554;7.966;2023-09-18T08:24:37;21.10;99.90
15947;DHT22;8072;52.554;7.966;2023-09-18T08:27:03;21.10;99.90
15947;DHT22;8072;52.554;7.966;2023-09-18T08:29:29;21.10;99.90
15947;DHT22;8072;52.554;7.966;2023-09-18T08:31:54;21.10;99.90
15947;DHT22;8072;52.554;7.966;2023-09-18T08:34:20;21.10;99.90
15947;DHT22;8072;52.554;7.966;2023-09-18T08:36:46;21.20;99.90
15947;DHT22;8072;52.554;7.966;2023-09-18T08:39:12;21.20;99.90
15947;DHT22;8072;52.554;7.966;2023-09-18T08:41:43;21.30;99.90
15947;DHT22;8072;52.554;7.966;2023-09-18T08:44:09;21.40;99.90
15947;DHT22;8072;52.554;7.966;2023-09-18T08:46:37;21.40;99.90
15947;DHT22;8072;52.554;7.966;2023-09-18T08:49:04;21.50;99.90
15947;DHT22;8072;52.554;7.966;2023-09-18T08:51:30;21.70;99.90
15947;DHT22;8072;52.554;7.966;2023-09-18T08:53:57;21.70;99.90
15947;DHT22;8072;52.554;7.966;2023-09-18T08:56:24;21.70;99.90
15947;DHT22;8072;52.554;7.966;2023-09-18T08:58:49;21.70;99.90
15947;DHT22;8072;52.554;7.966;2023-09-18T09:01:15;21.70;99.90
15947;DHT22;8072;52.554;7.966;2023-09-18T09:03:42;21.70;99.90
15947;DHT22;8072;52.554;7.966;2023-09-18T09:06:12;21.70;99.90
15947;DHT22;8072;52.554;7.966;2023-09-18T09:08:38;21.70;99.90
15947;DHT22;8072;52.554;7.966;2023-09-18T09:11:04;21.70;99.90
15947;DHT22;8072;52.554;7.966;2023-09-18T09:13:30;21.70;99.90
15947;DHT22;8072;52.554;7.966;2023-09-18T09:15:57;21.70;99.90
15947;DHT22;8072;52.554;7.966;2023-09-18T09:18:25;21.80;99.90
15947;DHT22;8072;52.554;7.966;2023-09-18T09:21:00;21.70;99.90
15947;DHT22;8072;52.554;7.966;2023-09-18T09:23:29;21.70;99.90
15947;DHT22;8072;52.554;7.966;2023-09-18T09:26:15;21.60;99.90
15947;DHT22;8072;52.554;7.966;2023-09-18T09:28:43;21.60;99.90
15947;DHT22;8072;52.554;7.966;2023-09-18T09:31:09;21.60;99.90
15947;DHT22;8072;52.554;7.966;2023-09-18T09:33:50;21.60;99.90
15947;DHT22;8072;52.554;7.966;2023-09-18T09:36:20;21.60;99.90
15947;DHT22;8072;52.554;7.966;2023-09-18T09:38:46;21.60;99.90
15947;DHT22;8072;52.554;7.966;2023-09-18T09:41:15;21.60;99.90
15947;DHT22;8072;52.554;7.966;2023-09-18T09:43:43;21.60;99.90
15947;DHT22;8072;52.554;7.966;2023-09-18T09:46:18;21.60;99.90
15947;DHT22;8072;52.554;7.966;2023-09-18T09:48:59;21.50;99.90
15947;DHT22;8072;52.554;7.966;2023-09-18T09:51:27;21.50;99.90
15947;DHT22;8072;52.554;7.966;2023-09-18T09:53:53;21.50;99.90
15947;DHT22;8072;52.554;7.966;2023-09-18T09:56:20;21.50;99.90
15947;DHT22;8072;52.554;7.966;2023-09-18T09:59:04;21.50;99.90
15947;DHT22;8072;52.554;7.966;2023-09-18T10:01:38;21.50;99.90
15947;DHT22;8072;52.554;7.966;2023-09-18T10:04:05;21.60;99.90
15947;DHT22;8072;52.554;7.966;2023-09-18T10:06:35;21.60;99.90
15947;DHT22;8072;52.554;7.966;2023-09-18T10:09:06;21.60;99.90
15947;DHT22;8072;52.554;7.966;2023-09-18T10:11:43;21.60;99.90
15947;DHT22;8072;52.554;7.966;2023-09-18T10:14:19;21.60;99.90
15947;DHT22;8072;52.554;7.966;2023-09-18T10:16:51;21.70;99.90
15947;DHT22;8072;52.554;7.966;2023-09-18T10:19:37;21.90;99.90
15947;DHT22;8072;52.554;7.966;2023-09-18T10:25:07;21.90;99.90
15947;DHT22;8072;52.554;7.966;2023-09-18T10:27:37;21.90;99.90
15947;DHT22;8072;52.554;7.966;2023-09-18T10:30:07;21.90;99.90
15947;DHT22;8072;52.554;7.966;2023-09-18T10:32:38;22.00;99.90
15947;DHT22;8072;52.554;7.966;2023-09-18T10:35:06;22.10;99.90
15947;DHT22;8072;52.554;7.966;2023-09-18T10:37:34;22.00;99.90
15947;DHT22;8072;52.554;7.966;2023-09-18T10:40:02;22.00;99.90
15947;DHT22;8072;52.554;7.966;2023-09-18T10:42:31;21.90;99.90
15947;DHT22;8072;52.554;7.966;2023-09-18T10:44:58;22.00;99.90
15947;DHT22;8072;52.554;7.966;2023-09-18T10:47:25;21.90;99.90
15947;DHT22;8072;52.554;7.966;2023-09-18T10:49:51;21.90;99.90
15947;DHT22;8072;52.554;7.966;2023-09-18T10:52:17;21.90;99.90
15947;DHT22;8072;52.554;7.966;2023-09-18T10:54:44;21.80;99.90
15947;DHT22;8072;52.554;7.966;2023-09-18T10:57:10;21.80;99.90
15947;DHT22;8072;52.554;7.966;2023-09-18T10:59:44;21.80;99.90
15947;DHT22;8072;52.554;7.966;2023-09-18T11:02:10;21.80;99.90
15947;DHT22;8072;52.554;7.966;2023-09-18T11:04:41;21.80;99.90
15947;DHT22;8072;52.554;7.966;2023-09-18T11:07:07;21.80;99.90
15947;DHT22;8072;52.554;7.966;2023-09-18T11:09:43;21.80;99.90
15947;DHT22;8072;52.554;7.966;2023-09-18T11:12:10;21.80;99.90
15947;DHT22;8072;52.554;7.966;2023-09-18T11:14:58;21.80;99.90
15947;DHT22;8072;52.554;7.966;2023-09-18T11:17:39;21.80;99.90
15947;DHT22;8072;52.554;7.966;2023-09-18T11:20:23;21.80;99.90
15947;DHT22;8072;52.554;7.966;2023-09-18T11:25:41;21.90;99.90
15947;DHT22;8072;52.554;7.966;2023-09-18T11:28:15;21.90;99.90
15947;DHT22;8072;52.554;7.966;2023-09-18T11:30:54;22.10;99.90
15947;DHT22;8072;52.554;7.966;2023-09-18T11:35:56;22.40;99.90
15947;DHT22;8072;52.554;7.966;2023-09-18T11:38:22;22.50;99.90
15947;DHT22;8072;52.554;7.966;2023-09-18T11:40:48;22.60;99.90
15947;DHT22;8072;52.554;7.966;2023-09-18T11:43:28;22.70;99.90
15947;DHT22;8072;52.554;7.966;2023-09-18T11:46:01;22.90;99.90
15947;DHT22;8072;52.554;7.966;2023-09-18T11:48:30;23.20;99.90
15947;DHT22;8072;52.554;7.966;2023-09-18T11:51:00;23.50;99.90
15947;DHT22;8072;52.554;7.966;2023-09-18T11:53:28;23.70;99.90
15947;DHT22;8072;52.554;7.966;2023-09-18T11:55:54;23.70;99.90
15947;DHT22;8072;52.554;7.966;2023-09-18T11:58:21;23.80;99.90
15947;DHT22;8072;52.554;7.966;2023-09-18T12:00:53;23.90;99.90
15947;DHT22;8072;52.554;7.966;2023-09-18T12:03:21;24.00;99.90
15947;DHT22;8072;52.554;7.966;2023-09-18T12:05:58;24.10;99.90
15947;DHT22;8072;52.554;7.966;2023-09-18T12:08:25;24.30;99.90
15947;DHT22;8072;52.554;7.966;2023-09-18T12:10:56;24.40;99.90
15947;DHT22;8072;52.554;7.966;2023-09-18T12:13:25;24.40;99.90
15947;DHT22;8072;52.554;7.966;2023-09-18T12:15:56;24.60;99.90
15947;DHT22;8072;52.554;7.966;2023-09-18T12:18:22;24.70;99.90
15947;DHT22;8072;52.554;7.966;2023-09-18T12:20:50;24.60;99.90
15947;DHT22;8072;52.554;7.966;2023-09-18T12:23:16;24.40;99.90
15947;DHT22;8072;52.554;7.966;2023-09-18T12:25:49;24.30;99.90
15947;DHT22;8072;52.554;7.966;2023-09-18T12:28:17;24.10;99.90
15947;DHT22;8072;52.554;7.966;2023-09-18T12:30:46;24.10;99.90
15947;DHT22;8072;52.554;7.966;2023-09-18T12:33:12;24.20;99.90
15947;DHT22;8072;52.554;7.966;2023-09-18T12:35:41;24.30;99.90
15947;DHT22;8072;52.554;7.966;2023-09-18T12:38:15;24.30;99.90
15947;DHT22;8072;52.554;7.966;2023-09-18T12:40:42;24.20;99.90
15947;DHT22;8072;52.554;7.966;2023-09-18T12:43:10;24.00;99.90
15947;DHT22;8072;52.554;7.966;2023-09-18T12:45:37;23.90;99.90
15947;DHT22;8072;52.554;7.966;2023-09-18T12:48:03;23.70;99.90
15947;DHT22;8072;52.554;7.966;2023-09-18T12:50:29;23.90;99.90
15947;DHT22;8072;52.554;7.966;2023-09-18T12:53:15;24.20;99.90
15947;DHT22;8072;52.554;7.966;2023-09-18T12:55:47;24.40;99.90
15947;DHT22;8072;52.554;7.966;2023-09-18T12:58:13;24.40;99.90
15947;DHT22;8072;52.554;7.966;2023-09-18T13:00:49;24.40;99.90
15947;DHT22;8072;52.554;7.966;2023-09-18T13:03:15;24.50;99.90
15947;DHT22;8072;52.554;7.966;2023-09-18T13:05:41;24.70;99.90
15947;DHT22;8072;52.554;7.966;2023-09-18T13:08:07;24.80;99.90
15947;DHT22;8072;52.554;7.966;2023-09-18T13:10:46;24.80;99.90
15947;DHT22;8072;52.554;7.966;2023-09-18T13:13:19;24.70;99.90
15947;DHT22;8072;52.554;7.966;2023-09-18T13:15:45;24.80;99.90
15947;DHT22;8072;52.554;7.966;2023-09-18T13:18:15;25.00;99.90
15947;DHT22;8072;52.554;7.966;2023-09-18T13:20:41;25.00;99.90
15947;DHT22;8072;52.554;7.966;2023-09-18T13:23:08;24.80;99.90
15947;DHT22;8072;52.554;7.966;2023-09-18T13:25:39;24.50;99.90
15947;DHT22;8072;52.554;7.966;2023-09-18T13:28:07;24.30;99.90
15947;DHT22;8072;52.554;7.966;2023-09-18T13:30:36;24.50;99.90
15947;DHT22;8072;52.554;7.966;2023-09-18T13:33:13;24.70;99.90
15947;DHT22;8072;52.554;7.966;2023-09-18T13:35:41;25.00;99.90
15947;DHT22;8072;52.554;7.966;2023-09-18T13:38:08;25.00;99.90
15947;DHT22;8072;52.554;7.966;2023-09-18T13:40:40;25.10;99.90
15947;DHT22;8072;52.554;7.966;2023-09-18T13:43:08;25.10;99.90
15947;DHT22;8072;52.554;7.966;2023-09-18T13:45:34;25.20;99.90
15947;DHT22;8072;52.554;7.966;2023-09-18T13:48:04;25.30;99.90
15947;DHT22;8072;52.554;7.966;2023-09-18T13:50:32;25.30;99.90
15947;DHT22;8072;52.554;7.966;2023-09-18T13:52:58;25.30;99.90
15947;DHT22;8072;52.554;7.966;2023-09-18T13:55:25;25.20;99.90
15947;DHT22;8072;52.554;7.966;2023-09-18T13:57:50;25.20;99.90
15947;DHT22;8072;52.554;7.966;2023-09-18T14:00:16;25.10;99.90
15947;DHT22;8072;52.554;7.966;2023-09-18T14:02:44;24.90;99.90
15947;DHT22;8072;52.554;7.966;2023-09-18T14:05:10;24.80;99.90
15947;DHT22;8072;52.554;7.966;2023-09-18T14:07:37;24.70;99.90
15947;DHT22;8072;52.554;7.966;2023-09-18T14:10:09;24.80;99.90
15947;DHT22;8072;52.554;7.966;2023-09-18T14:12:38;24.80;99.90
15947;DHT22;8072;52.554;7.966;2023-09-18T14:15:05;24.90;99.90
15947;DHT22;8072;52.554;7.966;2023-09-18T14:17:31;25.00;99.90
15947;DHT22;8072;52.554;7.966;2023-09-18T14:19:57;25.10;99.90
15947;DHT22;8072;52.554;7.966;2023-09-18T14:22:25;25.20;99.90
15947;DHT22;8072;52.554;7.966;2023-09-18T14:24:51;25.10;99.90
15947;DHT22;8072;52.554;7.966;2023-09-18T14:27:16;25.10;99.90
15947;DHT22;8072;52.554;7.966;2023-09-18T14:29:42;25.00;99.90
15947;DHT22;8072;52.554;7.966;2023-09-18T14:32:08;24.90;99.90
15947;DHT22;8072;52.554;7.966;2023-09-18T14:34:34;24.90;99.90
15947;DHT22;8072;52.554;7.966;2023-09-18T14:37:04;24.90;99.90
15947;DHT22;8072;52.554;7.966;2023-09-18T14:39:31;24.80;99.90
15947;DHT22;8072;52.554;7.966;2023-09-18T14:41:57;24.70;99.90
15947;DHT22;8072;52.554;7.966;2023-09-18T14:44:22;24.80;99.90
15947;DHT22;8072;52.554;7.966;2023-09-18T14:46:48;24.80;99.90
15947;DHT22;8072;52.554;7.966;2023-09-18T14:49:14;24.80;99.90
15947;DHT22;8072;52.554;7.966;2023-09-18T14:51:40;24.80;99.90
15947;DHT22;8072;52.554;7.966;2023-09-18T14:54:06;24.80;99.90
15947;DHT22;8072;52.554;7.966;2023-09-18T14:56:33;24.80;99.90
15947;DHT22;8072;52.554;7.966;2023-09-18T14:59:02;24.70;99.90
15947;DHT22;8072;52.554;7.966;2023-09-18T15:01:28;24.40;99.90
15947;DHT22;8072;52.554;7.966;2023-09-18T15:03:54;24.30;99.90
15947;DHT22;8072;52.554;7.966;2023-09-18T15:06:20;24.20;99.90
15947;DHT22;8072;52.554;7.966;2023-09-18T15:08:46;24.10;99.90
15947;DHT22;8072;52.554;7.966;2023-09-18T15:11:12;24.00;99.90
15947;DHT22;8072;52.554;7.966;2023-09-18T15:13:43;23.90;99.90
15947;DHT22;8072;52.554;7.966;2023-09-18T15:16:09;23.80;99.90
15947;DHT22;8072;52.554;7.966;2023-09-18T15:18:34;23.80;99.90
15947;DHT22;8072;52.554;7.966;2023-09-18T15:21:01;23.70;99.90
15947;DHT22;8072;52.554;7.966;2023-09-18T15:23:27;23.70;99.90
15947;DHT22;8072;52.554;7.966;2023-09-18T15:25:55;23.70;99.90
15947;DHT22;8072;52.554;7.966;2023-09-18T15:28:21;23.60;99.90
15947;DHT22;8072;52.554;7.966;2023-09-18T15:30:50;23.70;99.90
15947;DHT22;8072;52.554;7.966;2023-09-18T15:33:16;23.70;99.90
15947;DHT22;8072;52.554;7.966;2023-09-18T15:35:48;23.70;99.90
15947;DHT22;8072;52.554;7.966;2023-09-18T15:38:14;23.70;99.90
15947;DHT22;8072;52.554;7.966;2023-09-18T15:40:40;23.70;99.90
15947;DHT22;8072;52.554;7.966;2023-09-18T15:43:06;23.60;99.90
15947;DHT22;8072;52.554;7.966;2023-09-18T15:45:32;23.50;99.90
15947;DHT22;8072;52.554;7.966;2023-09-18T15:48:01;23.50;99.90
15947;DHT22;8072;52.554;7.966;2023-09-18T15:50:27;23.30;99.90
15947;DHT22;8072;52.554;7.966;2023-09-18T15:52:53;23.30;99.90
15947;DHT22;8072;52.554;7.966;2023-09-18T15:55:23;23.20;99.90
15947;DHT22;8072;52.554;7.966;2023-09-18T15:57:49;23.20;99.90